sensor_id;sensor_type;location;lat;lon;timestamp;P1;durP1;ratioP1;P2;durP2;ratioP2
35576;SDS011;21680;52.400;16.920;2023-06-26T00:00:42;9.70;;;5.00;;
35576;SDS011;21680;52.400;16.920;2023-06-26T00:03:08;11.20;;;5.60;;
35576;SDS011;21680;52.400;16.920;2023-06-26T00:05:34;9.90;;;5.60;;
35576;SDS011;21680;52.400;16.920;2023-06-26T00:07:59;9.60;;;5.60;;
35576;SDS011;21680;52.400;16.920;2023-06-26T00:10:26;8.80;;;5.50;;
35576;SDS011;21680;52.400;16.920;2023-06-26T00:12:52;8.40;;;5.90;;
35576;SDS011;21680;52.400;16.920;2023-06-26T00:15:18;13.40;;;5.90;;
35576;SDS011;21680;52.400;16.920;2023-06-26T00:17:44;9.10;;;5.30;;
35576;SDS011;21680;52.400;16.920;2023-06-26T00:20:10;8.80;;;6.00;;
35576;SDS011;21680;52.400;16.920;2023-06-26T00:22:36;11.60;;;6.40;;
35576;SDS011;21680;52.400;16.920;2023-06-26T00:25:05;8.30;;;5.50;;
35576;SDS011;21680;52.400;16.920;2023-06-26T00:27:31;7.80;;;5.20;;
35576;SDS011;21680;52.400;16.920;2023-06-26T00:29:56;8.30;;;5.30;;
35576;SDS011;21680;52.400;16.920;2023-06-26T00:32:21;7.50;;;5.50;;
35576;SDS011;21680;52.400;16.920;2023-06-26T00:34:46;8.60;;;5.50;;
35576;SDS011;21680;52.400;16.920;2023-06-26T00:37:12;6.90;;;5.20;;
35576;SDS011;21680;52.400;16.920;2023-06-26T00:39:37;7.80;;;5.60;;
35576;SDS011;21680;52.400;16.920;2023-06-26T00:42:03;8.20;;;5.50;;
35576;SDS011;21680;52.400;16.920;2023-06-26T00:44:28;8.50;;;6.20;;
35576;SDS011;21680;52.400;16.920;2023-06-26T00:46:53;7.30;;;5.40;;
35576;SDS011;21680;52.400;16.920;2023-06-26T00:49:19;7.90;;;5.40;;
35576;SDS011;21680;52.400;16.920;2023-06-26T00:51:44;6.10;;;4.90;;
35576;SDS011;21680;52.400;16.920;2023-06-26T00:54:10;7.30;;;5.30;;
35576;SDS011;21680;52.400;16.920;2023-06-26T00:56:35;8.80;;;6.40;;
35576;SDS011;21680;52.400;16.920;2023-06-26T00:59:02;7.70;;;6.00;;
35576;SDS011;21680;52.400;16.920;2023-06-26T01:01:27;7.10;;;4.90;;
35576;SDS011;21680;52.400;16.920;2023-06-26T01:03:53;8.20;;;5.40;;
35576;SDS011;21680;52.400;16.920;2023-06-26T01:06:20;7.50;;;5.50;;
35576;SDS011;21680;52.400;16.920;2023-06-26T01:08:47;7.30;;;5.20;;
35576;SDS011;21680;52.400;16.920;2023-06-26T01:11:13;8.30;;;5.60;;
35576;SDS011;21680;52.400;16.920;2023-06-26T01:13:40;7.90;;;5.00;;
35576;SDS011;21680;52.400;16.920;2023-06-26T01:16:07;7.90;;;5.60;;
35576;SDS011;21680;52.400;16.920;2023-06-26T01:18:33;6.10;;;4.70;;
35576;SDS011;21680;52.400;16.920;2023-06-26T01:21:00;9.40;;;5.50;;
35576;SDS011;21680;52.400;16.920;2023-06-26T01:23:31;6.60;;;4.70;;
35576;SDS011;21680;52.400;16.920;2023-06-26T01:26:22;9.40;;;5.40;;
35576;SDS011;21680;52.400;16.920;2023-06-26T01:28:51;9.70;;;5.30;;
35576;SDS011;21680;52.400;16.920;2023-06-26T01:31:18;7.20;;;5.10;;
35576;SDS011;21680;52.400;16.920;2023-06-26T01:33:44;7.70;;;5.00;;
35576;SDS011;21680;52.400;16.920;2023-06-26T01:36:11;7.70;;;5.40;;
35576;SDS011;21680;52.400;16.920;2023-06-26T01:38:37;10.30;;;5.50;;
35576;SDS011;21680;52.400;16.920;2023-06-26T01:41:02;8.50;;;5.50;;
35576;SDS011;21680;52.400;16.920;2023-06-26T01:46:23;11.40;;;5.70;;
35576;SDS011;21680;52.400;16.920;2023-06-26T01:48:55;7.60;;;5.10;;
35576;SDS011;21680;52.400;16.920;2023-06-26T01:51:27;10.10;;;5.40;;
35576;SDS011;21680;52.400;16.920;2023-06-26T01:53:59;7.40;;;5.20;;
35576;SDS011;21680;52.400;16.920;2023-06-26T01:56:26;8.40;;;5.60;;
35576;SDS011;21680;52.400;16.920;2023-06-26T01:58:54;7.40;;;5.30;;
35576;SDS011;21680;52.400;16.920;2023-06-26T02:01:20;9.70;;;5.70;;
35576;SDS011;21680;52.400;16.920;2023-06-26T02:03:47;8.40;;;6.20;;
35576;SDS011;21680;52.400;16.920;2023-06-26T02:06:12;9.10;;;6.00;;
35576;SDS011;21680;52.400;16.920;2023-06-26T02:08:38;10.30;;;5.80;;
35576;SDS011;21680;52.400;16.920;2023-06-26T02:11:03;9.80;;;6.70;;
35576;SDS011;21680;52.400;16.920;2023-06-26T02:13:28;8.50;;;5.80;;
35576;SDS011;21680;52.400;16.920;2023-06-26T02:15:53;7.40;;;5.50;;
35576;SDS011;21680;52.400;16.920;2023-06-26T02:18:19;9.40;;;5.60;;
35576;SDS011;21680;52.400;16.920;2023-06-26T02:20:46;8.70;;;6.00;;
35576;SDS011;21680;52.400;16.920;2023-06-26T02:23:11;10.90;;;6.00;;
35576;SDS011;21680;52.400;16.920;2023-06-26T02:25:37;13.40;;;6.40;;
35576;SDS011;21680;52.400;16.920;2023-06-26T02:28:03;11.90;;;6.40;;
35576;SDS011;21680;52.400;16.920;2023-06-26T02:30:28;9.70;;;6.00;;
35576;SDS011;21680;52.400;16.920;2023-06-26T02:32:53;8.90;;;6.10;;
35576;SDS011;21680;52.400;16.920;2023-06-26T02:35:19;9.90;;;6.10;;
35576;SDS011;21680;52.400;16.920;2023-06-26T02:37:44;9.30;;;6.40;;
35576;SDS011;21680;52.400;16.920;2023-06-26T02:40:09;11.40;;;6.40;;
35576;SDS011;21680;52.400;16.920;2023-06-26T02:42:35;10.00;;;6.30;;
35576;SDS011;21680;52.400;16.920;2023-06-26T02:45:00;11.20;;;6.30;;
35576;SDS011;21680;52.400;16.920;2023-06-26T02:47:26;11.10;;;6.40;;
35576;SDS011;21680;52.400;16.920;2023-06-26T02:49:51;10.90;;;5.70;;
35576;SDS011;21680;52.400;16.920;2023-06-26T02:52:16;9.40;;;5.70;;
35576;SDS011;21680;52.400;16.920;2023-06-26T02:54:45;13.00;;;6.00;;
35576;SDS011;21680;52.400;16.920;2023-06-26T02:57:10;10.20;;;5.50;;
35576;SDS011;21680;52.400;16.920;2023-06-26T02:59:35;10.10;;;5.80;;
35576;SDS011;21680;52.400;16.920;2023-06-26T03:02:00;9.30;;;5.70;;
35576;SDS011;21680;52.400;16.920;2023-06-26T03:04:26;9.10;;;5.70;;
35576;SDS011;21680;52.400;16.920;2023-06-26T03:06:51;8.50;;;5.70;;
35576;SDS011;21680;52.400;16.920;2023-06-26T03:09:16;11.40;;;6.10;;
35576;SDS011;21680;52.400;16.920;2023-06-26T03:11:42;14.10;;;6.50;;
35576;SDS011;21680;52.400;16.920;2023-06-26T03:14:08;10.10;;;6.10;;
35576;SDS011;21680;52.400;16.920;2023-06-26T03:16:33;9.50;;;5.80;;
35576;SDS011;21680;52.400;16.920;2023-06-26T03:18:58;10.80;;;6.10;;
35576;SDS011;21680;52.400;16.920;2023-06-26T03:21:23;10.20;;;6.40;;
35576;SDS011;21680;52.400;16.920;2023-06-26T03:23:49;9.80;;;6.70;;
35576;SDS011;21680;52.400;16.920;2023-06-26T03:26:14;11.50;;;6.00;;
35576;SDS011;21680;52.400;16.920;2023-06-26T03:28:39;14.90;;;6.90;;
35576;SDS011;21680;52.400;16.920;2023-06-26T03:31:05;9.90;;;6.40;;
35576;SDS011;21680;52.400;16.920;2023-06-26T03:33:30;12.90;;;7.00;;
35576;SDS011;21680;52.400;16.920;2023-06-26T03:35:56;15.60;;;7.30;;
35576;SDS011;21680;52.400;16.920;2023-06-26T03:38:21;13.50;;;7.70;;
35576;SDS011;21680;52.400;16.920;2023-06-26T03:40:47;12.70;;;7.80;;
35576;SDS011;21680;52.400;16.920;2023-06-26T03:43:12;15.40;;;8.10;;
35576;SDS011;21680;52.400;16.920;2023-06-26T03:45:38;10.20;;;6.90;;
35576;SDS011;21680;52.400;16.920;2023-06-26T03:48:03;14.20;;;6.80;;
35576;SDS011;21680;52.400;16.920;2023-06-26T03:50:28;10.20;;;6.70;;
35576;SDS011;21680;52.400;16.920;2023-06-26T03:52:54;11.70;;;6.70;;
35576;SDS011;21680;52.400;16.920;2023-06-26T03:55:19;12.90;;;6.80;;
35576;SDS011;21680;52.400;16.920;2023-06-26T03:57:46;11.10;;;6.60;;
35576;SDS011;21680;52.400;16.920;2023-06-26T04:00:11;10.70;;;6.20;;
35576;SDS011;21680;52.400;16.920;2023-06-26T04:02:37;9.80;;;6.60;;
35576;SDS011;21680;52.400;16.920;2023-06-26T04:05:04;10.20;;;6.40;;
35576;SDS011;21680;52.400;16.920;2023-06-26T04:07:30;13.40;;;6.40;;
35576;SDS011;21680;52.400;16.920;2023-06-26T04:09:56;9.40;;;6.60;;
35576;SDS011;21680;52.400;16.920;2023-06-26T04:12:22;9.40;;;6.60;;
35576;SDS011;21680;52.400;16.920;2023-06-26T04:14:47;13.70;;;6.40;;
35576;SDS011;21680;52.400;16.920;2023-06-26T04:17:12;13.40;;;6.70;;
35576;SDS011;21680;52.400;16.920;2023-06-26T04:19:37;9.60;;;5.90;;
35576;SDS011;21680;52.400;16.920;2023-06-26T04:22:03;13.20;;;6.70;;
35576;SDS011;21680;52.400;16.920;2023-06-26T04:24:28;12.80;;;6.70;;
35576;SDS011;21680;52.400;16.920;2023-06-26T04:26:54;13.80;;;6.20;;
35576;SDS011;21680;52.400;16.920;2023-06-26T04:29:22;10.20;;;6.30;;
35576;SDS011;21680;52.400;16.920;2023-06-26T04:31:51;13.60;;;6.70;;
35576;SDS011;21680;52.400;16.920;2023-06-26T04:34:17;8.00;;;6.30;;
35576;SDS011;21680;52.400;16.920;2023-06-26T04:36:42;9.60;;;5.70;;
35576;SDS011;21680;52.400;16.920;2023-06-26T04:39:11;10.80;;;7.00;;
35576;SDS011;21680;52.400;16.920;2023-06-26T04:41:37;11.50;;;6.60;;
35576;SDS011;21680;52.400;16.920;2023-06-26T04:44:02;9.00;;;6.40;;
35576;SDS011;21680;52.400;16.920;2023-06-26T04:46:27;11.30;;;6.40;;
35576;SDS011;21680;52.400;16.920;2023-06-26T04:48:53;11.50;;;6.60;;
35576;SDS011;21680;52.400;16.920;2023-06-26T04:51:18;10.20;;;6.60;;
35576;SDS011;21680;52.400;16.920;2023-06-26T04:53:45;21.20;;;6.70;;
35576;SDS011;21680;52.400;16.920;2023-06-26T04:56:11;11.70;;;7.30;;
35576;SDS011;21680;52.400;16.920;2023-06-26T04:58:36;12.70;;;6.40;;
35576;SDS011;21680;52.400;16.920;2023-06-26T05:01:01;10.00;;;6.20;;
35576;SDS011;21680;52.400;16.920;2023-06-26T05:03:26;9.90;;;6.90;;
35576;SDS011;21680;52.400;16.920;2023-06-26T05:05:51;11.90;;;6.50;;
35576;SDS011;21680;52.400;16.920;2023-06-26T05:08:21;12.10;;;6.60;;
35576;SDS011;21680;52.400;16.920;2023-06-26T05:10:47;11.90;;;6.60;;
35576;SDS011;21680;52.400;16.920;2023-06-26T05:13:13;11.50;;;6.30;;
35576;SDS011;21680;52.400;16.920;2023-06-26T05:15:42;15.00;;;7.20;;
35576;SDS011;21680;52.400;16.920;2023-06-26T05:18:07;12.30;;;6.90;;
35576;SDS011;21680;52.400;16.920;2023-06-26T05:20:34;9.90;;;6.30;;
35576;SDS011;21680;52.400;16.920;2023-06-26T05:23:01;11.10;;;6.50;;
35576;SDS011;21680;52.400;16.920;2023-06-26T05:25:27;15.40;;;7.50;;
35576;SDS011;21680;52.400;16.920;2023-06-26T05:27:54;11.80;;;6.80;;
35576;SDS011;21680;52.400;16.920;2023-06-26T05:30:20;10.80;;;6.30;;
35576;SDS011;21680;52.400;16.920;2023-06-26T05:32:47;12.80;;;6.70;;
35576;SDS011;21680;52.400;16.920;2023-06-26T05:35:13;13.90;;;6.50;;
35576;SDS011;21680;52.400;16.920;2023-06-26T05:37:41;13.50;;;7.50;;
35576;SDS011;21680;52.400;16.920;2023-06-26T05:40:07;11.70;;;6.90;;
35576;SDS011;21680;52.400;16.920;2023-06-26T05:42:34;13.30;;;6.40;;
35576;SDS011;21680;52.400;16.920;2023-06-26T05:44:59;13.10;;;6.60;;
35576;SDS011;21680;52.400;16.920;2023-06-26T05:47:24;11.60;;;5.80;;
35576;SDS011;21680;52.400;16.920;2023-06-26T05:49:50;11.90;;;6.70;;
35576;SDS011;21680;52.400;16.920;2023-06-26T05:52:15;10.90;;;6.20;;
35576;SDS011;21680;52.400;16.920;2023-06-26T05:54:41;13.20;;;6.20;;
35576;SDS011;21680;52.400;16.920;2023-06-26T05:57:07;15.50;;;6.00;;
35576;SDS011;21680;52.400;16.920;2023-06-26T05:59:32;12.40;;;5.60;;
35576;SDS011;21680;52.400;16.920;2023-06-26T06:02:00;13.40;;;7.00;;
35576;SDS011;21680;52.400;16.920;2023-06-26T06:04:25;13.00;;;6.40;;
35576;SDS011;21680;52.400;16.920;2023-06-26T06:06:51;16.00;;;6.40;;
35576;SDS011;21680;52.400;16.920;2023-06-26T06:09:16;13.40;;;6.10;;
35576;SDS011;21680;52.400;16.920;2023-06-26T06:11:42;12.10;;;6.70;;
35576;SDS011;21680;52.400;16.920;2023-06-26T06:14:07;14.00;;;6.50;;
35576;SDS011;21680;52.400;16.920;2023-06-26T06:16:32;13.10;;;6.90;;
35576;SDS011;21680;52.400;16.920;2023-06-26T06:18:57;14.10;;;6.10;;
35576;SDS011;21680;52.400;16.920;2023-06-26T06:21:22;13.60;;;6.10;;
35576;SDS011;21680;52.400;16.920;2023-06-26T06:23:48;19.00;;;6.60;;
35576;SDS011;21680;52.400;16.920;2023-06-26T06:26:13;17.50;;;6.90;;
35576;SDS011;21680;52.400;16.920;2023-06-26T06:28:39;14.40;;;6.50;;
35576;SDS011;21680;52.400;16.920;2023-06-26T06:31:04;13.20;;;5.90;;
35576;SDS011;21680;52.400;16.920;2023-06-26T06:33:30;17.20;;;6.80;;
35576;SDS011;21680;52.400;16.920;2023-06-26T06:35:55;9.30;;;6.20;;
35576;SDS011;21680;52.400;16.920;2023-06-26T06:38:20;12.50;;;6.20;;
35576;SDS011;21680;52.400;16.920;2023-06-26T06:40:45;11.80;;;6.20;;
35576;SDS011;21680;52.400;16.920;2023-06-26T06:43:11;12.10;;;5.80;;
35576;SDS011;21680;52.400;16.920;2023-06-26T06:45:36;7.70;;;5.80;;
35576;SDS011;21680;52.400;16.920;2023-06-26T06:48:03;7.90;;;4.90;;
35576;SDS011;21680;52.400;16.920;2023-06-26T06:50:29;11.30;;;5.70;;
35576;SDS011;21680;52.400;16.920;2023-06-26T06:52:54;10.30;;;6.20;;
35576;SDS011;21680;52.400;16.920;2023-06-26T06:55:19;6.60;;;4.50;;
35576;SDS011;21680;52.400;16.920;2023-06-26T06:57:45;7.80;;;4.90;;
35576;SDS011;21680;52.400;16.920;2023-06-26T07:00:11;12.80;;;4.90;;
35576;SDS011;21680;52.400;16.920;2023-06-26T07:02:39;11.60;;;5.10;;
35576;SDS011;21680;52.400;16.920;2023-06-26T07:05:07;11.30;;;5.50;;
35576;SDS011;21680;52.400;16.920;2023-06-26T07:07:34;21.20;;;6.40;;
35576;SDS011;21680;52.400;16.920;2023-06-26T07:10:03;11.60;;;5.50;;
35576;SDS011;21680;52.400;16.920;2023-06-26T07:12:35;19.00;;;4.60;;
35576;SDS011;21680;52.400;16.920;2023-06-26T07:15:02;13.30;;;5.40;;
35576;SDS011;21680;52.400;16.920;2023-06-26T07:17:29;10.60;;;4.90;;
35576;SDS011;21680;52.400;16.920;2023-06-26T07:19:58;9.80;;;4.20;;
35576;SDS011;21680;52.400;16.920;2023-06-26T07:22:24;15.90;;;5.00;;
35576;SDS011;21680;52.400;16.920;2023-06-26T07:24:49;10.50;;;4.90;;
35576;SDS011;21680;52.400;16.920;2023-06-26T07:27:15;12.50;;;5.50;;
35576;SDS011;21680;52.400;16.920;2023-06-26T07:29:41;12.20;;;4.70;;
35576;SDS011;21680;52.400;16.920;2023-06-26T07:32:07;11.20;;;5.30;;
35576;SDS011;21680;52.400;16.920;2023-06-26T07:34:33;8.70;;;4.30;;
35576;SDS011;21680;52.400;16.920;2023-06-26T07:36:58;6.90;;;4.00;;
35576;SDS011;21680;52.400;16.920;2023-06-26T07:39:24;5.50;;;4.10;;
35576;SDS011;21680;52.400;16.920;2023-06-26T07:41:49;9.90;;;4.80;;
35576;SDS011;21680;52.400;16.920;2023-06-26T07:44:14;7.90;;;4.90;;
35576;SDS011;21680;52.400;16.920;2023-06-26T07:46:40;9.10;;;5.20;;
35576;SDS011;21680;52.400;16.920;2023-06-26T07:49:05;14.40;;;5.20;;
35576;SDS011;21680;52.400;16.920;2023-06-26T07:51:30;10.90;;;4.40;;
35576;SDS011;21680;52.400;16.920;2023-06-26T07:53:55;8.90;;;4.40;;
35576;SDS011;21680;52.400;16.920;2023-06-26T07:56:21;14.20;;;5.40;;
35576;SDS011;21680;52.400;16.920;2023-06-26T07:58:46;11.90;;;5.20;;
35576;SDS011;21680;52.400;16.920;2023-06-26T08:01:11;7.10;;;4.80;;
35576;SDS011;21680;52.400;16.920;2023-06-26T08:03:36;7.30;;;4.30;;
35576;SDS011;21680;52.400;16.920;2023-06-26T08:06:02;7.40;;;4.60;;
35576;SDS011;21680;52.400;16.920;2023-06-26T08:08:28;15.30;;;4.80;;
35576;SDS011;21680;52.400;16.920;2023-06-26T08:10:53;7.10;;;4.70;;
35576;SDS011;21680;52.400;16.920;2023-06-26T08:13:18;8.00;;;4.80;;
35576;SDS011;21680;52.400;16.920;2023-06-26T08:15:44;5.60;;;4.10;;
35576;SDS011;21680;52.400;16.920;2023-06-26T08:18:09;7.90;;;4.40;;
35576;SDS011;21680;52.400;16.920;2023-06-26T08:20:34;6.90;;;4.20;;
35576;SDS011;21680;52.400;16.920;2023-06-26T08:23:02;9.70;;;4.80;;
35576;SDS011;21680;52.400;16.920;2023-06-26T08:25:28;5.10;;;3.70;;
35576;SDS011;21680;52.400;16.920;2023-06-26T08:27:54;4.90;;;3.90;;
35576;SDS011;21680;52.400;16.920;2023-06-26T08:30:20;5.00;;;3.90;;
35576;SDS011;21680;52.400;16.920;2023-06-26T08:32:47;5.80;;;3.80;;
35576;SDS011;21680;52.400;16.920;2023-06-26T08:35:13;5.50;;;3.60;;
35576;SDS011;21680;52.400;16.920;2023-06-26T08:37:38;9.90;;;4.80;;
35576;SDS011;21680;52.400;16.920;2023-06-26T08:40:04;6.50;;;4.00;;
35576;SDS011;21680;52.400;16.920;2023-06-26T08:42:31;5.30;;;4.10;;
35576;SDS011;21680;52.400;16.920;2023-06-26T08:44:56;6.60;;;4.30;;
35576;SDS011;21680;52.400;16.920;2023-06-26T08:47:22;12.30;;;5.00;;
35576;SDS011;21680;52.400;16.920;2023-06-26T08:50:01;7.90;;;4.90;;
35576;SDS011;21680;52.400;16.920;2023-06-26T08:52:41;10.30;;;4.80;;
35576;SDS011;21680;52.400;16.920;2023-06-26T08:55:10;6.90;;;4.60;;
35576;SDS011;21680;52.400;16.920;2023-06-26T08:57:39;7.10;;;4.20;;
35576;SDS011;21680;52.400;16.920;2023-06-26T09:00:05;8.10;;;5.20;;
35576;SDS011;21680;52.400;16.920;2023-06-26T09:02:33;5.40;;;4.00;;
35576;SDS011;21680;52.400;16.920;2023-06-26T09:05:00;10.00;;;4.50;;
35576;SDS011;21680;52.400;16.920;2023-06-26T09:07:26;8.00;;;4.50;;
35576;SDS011;21680;52.400;16.920;2023-06-26T09:09:52;4.90;;;4.00;;
35576;SDS011;21680;52.400;16.920;2023-06-26T09:12:17;10.20;;;4.90;;
35576;SDS011;21680;52.400;16.920;2023-06-26T09:14:45;8.00;;;4.90;;
35576;SDS011;21680;52.400;16.920;2023-06-26T09:17:12;7.70;;;3.90;;
35576;SDS011;21680;52.400;16.920;2023-06-26T09:19:38;9.00;;;4.70;;
35576;SDS011;21680;52.400;16.920;2023-06-26T09:22:03;7.90;;;3.40;;
35576;SDS011;21680;52.400;16.920;2023-06-26T09:24:29;4.80;;;4.10;;
35576;SDS011;21680;52.400;16.920;2023-06-26T09:26:55;7.20;;;3.90;;
35576;SDS011;21680;52.400;16.920;2023-06-26T09:29:20;8.70;;;5.00;;
35576;SDS011;21680;52.400;16.920;2023-06-26T09:31:46;7.40;;;4.10;;
35576;SDS011;21680;52.400;16.920;2023-06-26T09:34:11;10.80;;;4.60;;
35576;SDS011;21680;52.400;16.920;2023-06-26T09:36:36;9.00;;;3.90;;
35576;SDS011;21680;52.400;16.920;2023-06-26T09:39:03;7.40;;;4.20;;
35576;SDS011;21680;52.400;16.920;2023-06-26T09:41:35;13.30;;;5.20;;
35576;SDS011;21680;52.400;16.920;2023-06-26T09:44:01;9.60;;;4.70;;
35576;SDS011;21680;52.400;16.920;2023-06-26T09:46:28;15.70;;;4.60;;
35576;SDS011;21680;52.400;16.920;2023-06-26T09:48:58;8.50;;;4.70;;
35576;SDS011;21680;52.400;16.920;2023-06-26T09:51:33;9.00;;;4.10;;
35576;SDS011;21680;52.400;16.920;2023-06-26T09:53:59;5.60;;;3.90;;
35576;SDS011;21680;52.400;16.920;2023-06-26T09:56:26;7.40;;;4.30;;
35576;SDS011;21680;52.400;16.920;2023-06-26T09:58:53;11.50;;;4.40;;
35576;SDS011;21680;52.400;16.920;2023-06-26T10:01:21;4.90;;;3.90;;
35576;SDS011;21680;52.400;16.920;2023-06-26T10:03:46;5.70;;;4.10;;
35576;SDS011;21680;52.400;16.920;2023-06-26T10:06:12;5.90;;;4.00;;
35576;SDS011;21680;52.400;16.920;2023-06-26T10:08:39;6.90;;;4.10;;
35576;SDS011;21680;52.400;16.920;2023-06-26T10:11:05;13.20;;;4.40;;
35576;SDS011;21680;52.400;16.920;2023-06-26T10:13:35;17.50;;;4.50;;
35576;SDS011;21680;52.400;16.920;2023-06-26T10:16:04;12.30;;;4.00;;
35576;SDS011;21680;52.400;16.920;2023-06-26T10:18:33;14.10;;;4.00;;
35576;SDS011;21680;52.400;16.920;2023-06-26T10:21:02;7.90;;;4.40;;
35576;SDS011;21680;52.400;16.920;2023-06-26T10:23:29;7.20;;;4.80;;
35576;SDS011;21680;52.400;16.920;2023-06-26T10:25:57;5.70;;;4.30;;
35576;SDS011;21680;52.400;16.920;2023-06-26T10:28:25;10.40;;;4.80;;
35576;SDS011;21680;52.400;16.920;2023-06-26T10:30:55;11.60;;;4.80;;
35576;SDS011;21680;52.400;16.920;2023-06-26T10:33:25;12.50;;;4.20;;
35576;SDS011;21680;52.400;16.920;2023-06-26T10:35:51;7.90;;;4.10;;
35576;SDS011;21680;52.400;16.920;2023-06-26T10:38:16;5.90;;;4.00;;
35576;SDS011;21680;52.400;16.920;2023-06-26T10:40:46;7.40;;;4.70;;
35576;SDS011;21680;52.400;16.920;2023-06-26T10:43:16;10.30;;;4.20;;
35576;SDS011;21680;52.400;16.920;2023-06-26T10:45:44;8.00;;;4.70;;
35576;SDS011;21680;52.400;16.920;2023-06-26T10:48:13;10.40;;;4.30;;
35576;SDS011;21680;52.400;16.920;2023-06-26T10:50:39;5.60;;;4.30;;
35576;SDS011;21680;52.400;16.920;2023-06-26T10:53:08;6.40;;;4.20;;
35576;SDS011;21680;52.400;16.920;2023-06-26T10:55:59;12.50;;;4.30;;
35576;SDS011;21680;52.400;16.920;2023-06-26T10:58:26;8.70;;;4.30;;
35576;SDS011;21680;52.400;16.920;2023-06-26T11:11:21;5.50;;;3.90;;
35576;SDS011;21680;52.400;16.920;2023-06-26T11:13:47;12.30;;;4.40;;
35576;SDS011;21680;52.400;16.920;2023-06-26T11:16:13;6.20;;;4.30;;
35576;SDS011;21680;52.400;16.920;2023-06-26T11:18:39;5.40;;;3.50;;
35576;SDS011;21680;52.400;16.920;2023-06-26T11:21:09;5.90;;;3.80;;
35576;SDS011;21680;52.400;16.920;2023-06-26T11:23:37;6.80;;;4.30;;
35576;SDS011;21680;52.400;16.920;2023-06-26T11:26:18;11.10;;;4.00;;
35576;SDS011;21680;52.400;16.920;2023-06-26T11:28:50;9.00;;;4.10;;
35576;SDS011;21680;52.400;16.920;2023-06-26T11:31:35;11.80;;;4.00;;
35576;SDS011;21680;52.400;16.920;2023-06-26T11:34:06;11.10;;;3.80;;
35576;SDS011;21680;52.400;16.920;2023-06-26T11:36:37;6.50;;;4.10;;
35576;SDS011;21680;52.400;16.920;2023-06-26T11:39:04;7.30;;;3.30;;
35576;SDS011;21680;52.400;16.920;2023-06-26T11:41:34;4.60;;;3.80;;
35576;SDS011;21680;52.400;16.920;2023-06-26T11:44:04;5.00;;;3.40;;
35576;SDS011;21680;52.400;16.920;2023-06-26T11:46:30;9.40;;;3.80;;
35576;SDS011;21680;52.400;16.920;2023-06-26T11:48:56;10.80;;;4.30;;
35576;SDS011;21680;52.400;16.920;2023-06-26T11:51:22;5.40;;;3.60;;
35576;SDS011;21680;52.400;16.920;2023-06-26T11:53:48;17.50;;;4.40;;
35576;SDS011;21680;52.400;16.920;2023-06-26T11:56:14;5.20;;;3.80;;
35576;SDS011;21680;52.400;16.920;2023-06-26T12:01:33;5.10;;;3.70;;
35576;SDS011;21680;52.400;16.920;2023-06-26T12:04:01;8.90;;;3.70;;
35576;SDS011;21680;52.400;16.920;2023-06-26T12:06:28;5.50;;;3.40;;
35576;SDS011;21680;52.400;16.920;2023-06-26T12:08:55;6.40;;;3.50;;
35576;SDS011;21680;52.400;16.920;2023-06-26T12:11:22;3.40;;;3.00;;
35576;SDS011;21680;52.400;16.920;2023-06-26T12:13:49;6.10;;;3.40;;
35576;SDS011;21680;52.400;16.920;2023-06-26T12:16:15;6.20;;;3.80;;
35576;SDS011;21680;52.400;16.920;2023-06-26T12:18:40;8.20;;;3.60;;
35576;SDS011;21680;52.400;16.920;2023-06-26T12:21:06;4.50;;;3.60;;
35576;SDS011;21680;52.400;16.920;2023-06-26T12:23:38;3.70;;;3.20;;
35576;SDS011;21680;52.400;16.920;2023-06-26T12:26:20;6.30;;;3.50;;
35576;SDS011;21680;52.400;16.920;2023-06-26T12:28:46;7.80;;;3.60;;
35576;SDS011;21680;52.400;16.920;2023-06-26T12:31:15;6.20;;;3.80;;
35576;SDS011;21680;52.400;16.920;2023-06-26T12:33:42;9.00;;;3.40;;
35576;SDS011;21680;52.400;16.920;2023-06-26T12:36:14;8.20;;;3.30;;
35576;SDS011;21680;52.400;16.920;2023-06-26T12:38:44;8.80;;;3.60;;
35576;SDS011;21680;52.400;16.920;2023-06-26T12:41:13;5.90;;;3.70;;
35576;SDS011;21680;52.400;16.920;2023-06-26T12:43:39;4.60;;;3.90;;
35576;SDS011;21680;52.400;16.920;2023-06-26T12:46:05;12.80;;;3.90;;
35576;SDS011;21680;52.400;16.920;2023-06-26T12:48:44;13.60;;;4.60;;
35576;SDS011;21680;52.400;16.920;2023-06-26T12:51:15;9.50;;;3.80;;
35576;SDS011;21680;52.400;16.920;2023-06-26T12:53:41;6.00;;;4.10;;
35576;SDS011;21680;52.400;16.920;2023-06-26T12:56:08;20.90;;;5.50;;
35576;SDS011;21680;52.400;16.920;2023-06-26T12:58:34;12.20;;;4.60;;
35576;SDS011;21680;52.400;16.920;2023-06-26T13:01:04;7.60;;;4.50;;
35576;SDS011;21680;52.400;16.920;2023-06-26T13:03:35;14.00;;;5.30;;
35576;SDS011;21680;52.400;16.920;2023-06-26T13:06:01;13.00;;;4.70;;
35576;SDS011;21680;52.400;16.920;2023-06-26T13:08:26;14.30;;;4.90;;
35576;SDS011;21680;52.400;16.920;2023-06-26T13:10:51;16.50;;;4.70;;
35576;SDS011;21680;52.400;16.920;2023-06-26T13:13:16;7.20;;;4.00;;
35576;SDS011;21680;52.400;16.920;2023-06-26T13:15:42;9.50;;;4.20;;
35576;SDS011;21680;52.400;16.920;2023-06-26T13:18:07;10.90;;;3.60;;
35576;SDS011;21680;52.400;16.920;2023-06-26T13:20:32;8.70;;;4.70;;
35576;SDS011;21680;52.400;16.920;2023-06-26T13:22:57;5.90;;;4.20;;
35576;SDS011;21680;52.400;16.920;2023-06-26T13:25:22;4.90;;;4.20;;
35576;SDS011;21680;52.400;16.920;2023-06-26T13:27:48;8.80;;;4.50;;
35576;SDS011;21680;52.400;16.920;2023-06-26T13:30:14;5.90;;;3.80;;
35576;SDS011;21680;52.400;16.920;2023-06-26T13:32:41;10.10;;;4.20;;
35576;SDS011;21680;52.400;16.920;2023-06-26T13:35:07;9.60;;;4.60;;
35576;SDS011;21680;52.400;16.920;2023-06-26T13:37:33;5.70;;;4.10;;
35576;SDS011;21680;52.400;16.920;2023-06-26T13:40:02;4.70;;;4.20;;
35576;SDS011;21680;52.400;16.920;2023-06-26T13:42:28;5.90;;;4.40;;
35576;SDS011;21680;52.400;16.920;2023-06-26T13:44:54;6.90;;;4.00;;
35576;SDS011;21680;52.400;16.920;2023-06-26T13:47:19;9.00;;;3.90;;
35576;SDS011;21680;52.400;16.920;2023-06-26T13:49:44;6.20;;;4.00;;
35576;SDS011;21680;52.400;16.920;2023-06-26T13:52:09;6.00;;;4.00;;
35576;SDS011;21680;52.400;16.920;2023-06-26T13:54:35;9.50;;;4.40;;
35576;SDS011;21680;52.400;16.920;2023-06-26T13:57:02;7.40;;;4.30;;
35576;SDS011;21680;52.400;16.920;2023-06-26T13:59:30;9.70;;;4.20;;
35576;SDS011;21680;52.400;16.920;2023-06-26T14:01:55;4.10;;;3.70;;
35576;SDS011;21680;52.400;16.920;2023-06-26T14:04:20;6.60;;;4.80;;
35576;SDS011;21680;52.400;16.920;2023-06-26T14:06:46;4.40;;;3.80;;
35576;SDS011;21680;52.400;16.920;2023-06-26T14:09:11;9.30;;;4.40;;
35576;SDS011;21680;52.400;16.920;2023-06-26T14:11:36;4.50;;;4.10;;
35576;SDS011;21680;52.400;16.920;2023-06-26T14:14:02;4.50;;;4.00;;
35576;SDS011;21680;52.400;16.920;2023-06-26T14:16:27;5.80;;;3.40;;
35576;SDS011;21680;52.400;16.920;2023-06-26T14:18:54;8.30;;;4.40;;
35576;SDS011;21680;52.400;16.920;2023-06-26T14:21:20;4.70;;;3.40;;
35576;SDS011;21680;52.400;16.920;2023-06-26T14:23:46;4.50;;;4.00;;
35576;SDS011;21680;52.400;16.920;2023-06-26T14:26:11;3.70;;;3.20;;
35576;SDS011;21680;52.400;16.920;2023-06-26T14:28:36;3.80;;;3.40;;
35576;SDS011;21680;52.400;16.920;2023-06-26T14:31:03;4.40;;;3.80;;
35576;SDS011;21680;52.400;16.920;2023-06-26T14:33:28;6.40;;;4.30;;
35576;SDS011;21680;52.400;16.920;2023-06-26T14:35:53;6.70;;;4.50;;
35576;SDS011;21680;52.400;16.920;2023-06-26T14:38:18;7.10;;;4.30;;
35576;SDS011;21680;52.400;16.920;2023-06-26T14:40:44;6.30;;;4.00;;